aviador You're here:

KMSS Decoded Metar

MASSENA in NY, USA
Report Time2017-07-21 01:53:00
UTC Time2017-07-21 02:54:12
Flight Rules vfr VFR
Wind220° at 08 kt
W.Decomp.*RWY 23: 8.0 kt HW 0.6 kt RCW
RWY 27: 6.5 kt HW 4.7 kt LCW
W.Rank220° ranks 1
Current wind is below 220° avg. (9.1)
Visibility9999 m
Phenomena:N/A
Clouds:N/A
Expected CloudBase > 2,000 ft AGL from Temp-Dew spread
CeilingNone
Temp20°C (ISA +5)
Dew Point15°C (73% RH)
AAT18.7°C
QNH1012 hPa
Density Alt1,115 ft
Elevation217 ft
Report Wrong Elevation
Raw Report
KMSS 210153Z AUTO 22008KT 10SM CLR 20/15 A2987 RMK AO2 SLP113
T02000150=

Extra information for KMSS:More info

Metar Taf Metar & Taf Last 4 Metars F.Rules Stats Wind Profile Meteogram Temp Stats Airport Information Weather charts Add Link Nearby VenuesMetar ALERT Operation Metar Decoded Social comments

AIRNAV info for KMSS